Terminal Aerodrome Forecast
Issued by NWS

Home | Current Version | Previous Version | Text Only | Print | Product List | Glossary On
Versions: 1 2 3 4 5 6 7 8 9 10 11 12 13 14 15 16 17 18 19
000
FTUS43 KGRB 311000 AAA
TAFATW
TAF AMD
KATW 311012Z 3110/0106 21006KT P6SM OVC030
     FM311500 27005KT P6SM BKN035 OVC080
     FM312100 36009KT P6SM -SHSN BKN035 OVC080
     FM010200 03012G20KT P6SM SCT025 BKN035
      TEMPO 0102/0106 -SHSN BKN025=

USA.gov is the U.S. government's official web portal to all federal, state and local government web resources and services.